sensor_id;sensor_type;location;lat;lon;timestamp;P1;durP1;ratioP1;P2;durP2;ratioP2
8859;SDS011;4466;50.948;4.832;2024-03-17T00:00:44;5.17;;;4.13;;
8859;SDS011;4466;50.948;4.832;2024-03-17T00:03:10;8.00;;;4.53;;
8859;SDS011;4466;50.948;4.832;2024-03-17T00:05:35;6.73;;;4.83;;
8859;SDS011;4466;50.948;4.832;2024-03-17T00:08:02;7.70;;;5.60;;
8859;SDS011;4466;50.948;4.832;2024-03-17T00:10:30;7.77;;;5.10;;
8859;SDS011;4466;50.948;4.832;2024-03-17T00:12:56;7.27;;;5.17;;
8859;SDS011;4466;50.948;4.832;2024-03-17T00:15:22;6.63;;;5.50;;
8859;SDS011;4466;50.948;4.832;2024-03-17T00:17:48;6.87;;;5.30;;
8859;SDS011;4466;50.948;4.832;2024-03-17T00:20:14;6.07;;;5.27;;
8859;SDS011;4466;50.948;4.832;2024-03-17T00:22:46;6.87;;;5.50;;
8859;SDS011;4466;50.948;4.832;2024-03-17T00:25:12;7.83;;;6.07;;
8859;SDS011;4466;50.948;4.832;2024-03-17T00:27:38;7.80;;;6.13;;
8859;SDS011;4466;50.948;4.832;2024-03-17T00:30:07;8.33;;;5.97;;
8859;SDS011;4466;50.948;4.832;2024-03-17T00:32:43;8.67;;;5.87;;
8859;SDS011;4466;50.948;4.832;2024-03-17T00:35:09;7.77;;;5.87;;
8859;SDS011;4466;50.948;4.832;2024-03-17T00:37:38;7.50;;;5.80;;
8859;SDS011;4466;50.948;4.832;2024-03-17T00:40:04;7.10;;;5.60;;
8859;SDS011;4466;50.948;4.832;2024-03-17T00:42:32;8.60;;;5.40;;
8859;SDS011;4466;50.948;4.832;2024-03-17T00:44:58;7.67;;;6.03;;
8859;SDS011;4466;50.948;4.832;2024-03-17T00:47:25;7.80;;;5.90;;
8859;SDS011;4466;50.948;4.832;2024-03-17T00:49:50;8.00;;;5.43;;
8859;SDS011;4466;50.948;4.832;2024-03-17T00:52:16;7.43;;;5.60;;
8859;SDS011;4466;50.948;4.832;2024-03-17T00:54:42;6.00;;;5.40;;
8859;SDS011;4466;50.948;4.832;2024-03-17T00:57:08;6.83;;;5.63;;
8859;SDS011;4466;50.948;4.832;2024-03-17T00:59:33;6.03;;;5.43;;
8859;SDS011;4466;50.948;4.832;2024-03-17T01:01:59;6.77;;;5.40;;
8859;SDS011;4466;50.948;4.832;2024-03-17T01:04:25;9.40;;;5.33;;
8859;SDS011;4466;50.948;4.832;2024-03-17T01:06:50;6.50;;;5.73;;
8859;SDS011;4466;50.948;4.832;2024-03-17T01:09:16;9.47;;;6.10;;
8859;SDS011;4466;50.948;4.832;2024-03-17T01:11:42;7.97;;;5.87;;
8859;SDS011;4466;50.948;4.832;2024-03-17T01:14:08;7.67;;;5.97;;
8859;SDS011;4466;50.948;4.832;2024-03-17T01:16:34;7.30;;;5.57;;
8859;SDS011;4466;50.948;4.832;2024-03-17T01:19:00;8.33;;;6.00;;
8859;SDS011;4466;50.948;4.832;2024-03-17T01:21:25;7.27;;;5.83;;
8859;SDS011;4466;50.948;4.832;2024-03-17T01:23:51;10.03;;;6.33;;
8859;SDS011;4466;50.948;4.832;2024-03-17T01:26:18;8.07;;;5.90;;
8859;SDS011;4466;50.948;4.832;2024-03-17T01:28:43;8.60;;;6.00;;
8859;SDS011;4466;50.948;4.832;2024-03-17T01:31:09;7.37;;;6.27;;
8859;SDS011;4466;50.948;4.832;2024-03-17T01:33:34;8.87;;;6.17;;
8859;SDS011;4466;50.948;4.832;2024-03-17T01:36:00;9.27;;;6.60;;
8859;SDS011;4466;50.948;4.832;2024-03-17T01:38:26;7.80;;;6.37;;
8859;SDS011;4466;50.948;4.832;2024-03-17T01:40:51;8.50;;;6.60;;
8859;SDS011;4466;50.948;4.832;2024-03-17T01:43:17;9.80;;;7.13;;
8859;SDS011;4466;50.948;4.832;2024-03-17T01:45:43;10.83;;;7.70;;
8859;SDS011;4466;50.948;4.832;2024-03-17T01:48:12;9.57;;;7.17;;
8859;SDS011;4466;50.948;4.832;2024-03-17T01:50:44;10.47;;;8.03;;
8859;SDS011;4466;50.948;4.832;2024-03-17T01:53:13;10.47;;;7.23;;
8859;SDS011;4466;50.948;4.832;2024-03-17T01:55:40;11.07;;;7.50;;
8859;SDS011;4466;50.948;4.832;2024-03-17T01:58:08;10.13;;;7.67;;
8859;SDS011;4466;50.948;4.832;2024-03-17T02:00:37;11.83;;;8.07;;
8859;SDS011;4466;50.948;4.832;2024-03-17T02:03:06;10.73;;;8.10;;
8859;SDS011;4466;50.948;4.832;2024-03-17T02:05:33;11.73;;;8.17;;
8859;SDS011;4466;50.948;4.832;2024-03-17T02:08:06;10.70;;;7.83;;
8859;SDS011;4466;50.948;4.832;2024-03-17T02:10:32;10.47;;;7.87;;
8859;SDS011;4466;50.948;4.832;2024-03-17T02:12:59;11.73;;;9.30;;
8859;SDS011;4466;50.948;4.832;2024-03-17T02:15:25;13.07;;;8.57;;
8859;SDS011;4466;50.948;4.832;2024-03-17T02:17:51;10.70;;;8.13;;
8859;SDS011;4466;50.948;4.832;2024-03-17T02:20:17;11.80;;;8.43;;
8859;SDS011;4466;50.948;4.832;2024-03-17T02:22:43;10.13;;;8.13;;
8859;SDS011;4466;50.948;4.832;2024-03-17T02:25:08;11.27;;;8.33;;
8859;SDS011;4466;50.948;4.832;2024-03-17T02:27:35;10.30;;;8.23;;
8859;SDS011;4466;50.948;4.832;2024-03-17T02:30:01;10.47;;;8.30;;
8859;SDS011;4466;50.948;4.832;2024-03-17T02:32:33;12.07;;;8.47;;
8859;SDS011;4466;50.948;4.832;2024-03-17T02:34:59;11.57;;;8.47;;
8859;SDS011;4466;50.948;4.832;2024-03-17T02:37:25;10.13;;;8.20;;
8859;SDS011;4466;50.948;4.832;2024-03-17T02:39:51;10.33;;;7.77;;
8859;SDS011;4466;50.948;4.832;2024-03-17T02:42:17;12.37;;;8.40;;
8859;SDS011;4466;50.948;4.832;2024-03-17T02:44:44;9.43;;;7.97;;
8859;SDS011;4466;50.948;4.832;2024-03-17T02:47:10;11.87;;;8.60;;
8859;SDS011;4466;50.948;4.832;2024-03-17T02:49:39;12.83;;;8.50;;
8859;SDS011;4466;50.948;4.832;2024-03-17T02:52:08;13.13;;;8.73;;
8859;SDS011;4466;50.948;4.832;2024-03-17T02:54:38;10.90;;;7.90;;
8859;SDS011;4466;50.948;4.832;2024-03-17T02:57:05;10.27;;;8.00;;
8859;SDS011;4466;50.948;4.832;2024-03-17T02:59:31;10.53;;;7.67;;
8859;SDS011;4466;50.948;4.832;2024-03-17T03:02:00;11.50;;;7.70;;
8859;SDS011;4466;50.948;4.832;2024-03-17T03:04:26;13.43;;;7.80;;
8859;SDS011;4466;50.948;4.832;2024-03-17T03:06:52;10.80;;;7.70;;
8859;SDS011;4466;50.948;4.832;2024-03-17T03:09:18;11.90;;;7.17;;
8859;SDS011;4466;50.948;4.832;2024-03-17T03:11:56;9.60;;;7.10;;
8859;SDS011;4466;50.948;4.832;2024-03-17T03:14:21;12.50;;;7.50;;
8859;SDS011;4466;50.948;4.832;2024-03-17T03:16:47;10.57;;;7.10;;
8859;SDS011;4466;50.948;4.832;2024-03-17T03:19:14;10.07;;;7.10;;
8859;SDS011;4466;50.948;4.832;2024-03-17T03:21:40;8.87;;;6.77;;
8859;SDS011;4466;50.948;4.832;2024-03-17T03:24:06;9.53;;;7.03;;
8859;SDS011;4466;50.948;4.832;2024-03-17T03:26:31;10.40;;;7.07;;
8859;SDS011;4466;50.948;4.832;2024-03-17T03:28:58;9.10;;;6.63;;
8859;SDS011;4466;50.948;4.832;2024-03-17T03:31:24;11.87;;;6.70;;
8859;SDS011;4466;50.948;4.832;2024-03-17T03:33:49;8.07;;;6.40;;
8859;SDS011;4466;50.948;4.832;2024-03-17T03:36:15;10.20;;;6.63;;
8859;SDS011;4466;50.948;4.832;2024-03-17T03:38:44;6.53;;;5.53;;
8859;SDS011;4466;50.948;4.832;2024-03-17T03:41:10;7.57;;;6.10;;
8859;SDS011;4466;50.948;4.832;2024-03-17T03:43:37;7.57;;;5.80;;
8859;SDS011;4466;50.948;4.832;2024-03-17T03:46:03;8.80;;;5.47;;
8859;SDS011;4466;50.948;4.832;2024-03-17T03:48:29;7.93;;;5.70;;
8859;SDS011;4466;50.948;4.832;2024-03-17T03:50:55;8.33;;;5.60;;
8859;SDS011;4466;50.948;4.832;2024-03-17T03:53:20;6.93;;;5.43;;
8859;SDS011;4466;50.948;4.832;2024-03-17T03:55:47;6.83;;;5.03;;
8859;SDS011;4466;50.948;4.832;2024-03-17T03:58:13;6.30;;;5.07;;
8859;SDS011;4466;50.948;4.832;2024-03-17T04:00:39;10.07;;;5.70;;
8859;SDS011;4466;50.948;4.832;2024-03-17T04:03:05;6.87;;;5.57;;
8859;SDS011;4466;50.948;4.832;2024-03-17T04:05:31;5.80;;;4.90;;
8859;SDS011;4466;50.948;4.832;2024-03-17T04:07:57;6.50;;;4.83;;
8859;SDS011;4466;50.948;4.832;2024-03-17T04:10:23;6.10;;;5.03;;
8859;SDS011;4466;50.948;4.832;2024-03-17T04:12:49;7.70;;;5.30;;
8859;SDS011;4466;50.948;4.832;2024-03-17T04:15:15;6.57;;;5.17;;
8859;SDS011;4466;50.948;4.832;2024-03-17T04:17:41;6.50;;;5.30;;
8859;SDS011;4466;50.948;4.832;2024-03-17T04:20:07;7.53;;;5.00;;
8859;SDS011;4466;50.948;4.832;2024-03-17T04:22:35;6.37;;;5.23;;
8859;SDS011;4466;50.948;4.832;2024-03-17T04:25:01;6.20;;;5.03;;
8859;SDS011;4466;50.948;4.832;2024-03-17T04:27:28;6.80;;;4.80;;
8859;SDS011;4466;50.948;4.832;2024-03-17T04:29:58;7.17;;;4.33;;
8859;SDS011;4466;50.948;4.832;2024-03-17T04:32:24;5.83;;;4.73;;
8859;SDS011;4466;50.948;4.832;2024-03-17T04:34:53;6.80;;;5.00;;
8859;SDS011;4466;50.948;4.832;2024-03-17T04:37:19;7.80;;;4.67;;
8859;SDS011;4466;50.948;4.832;2024-03-17T04:39:45;7.17;;;4.77;;
8859;SDS011;4466;50.948;4.832;2024-03-17T04:42:12;7.00;;;4.70;;
8859;SDS011;4466;50.948;4.832;2024-03-17T04:44:42;5.87;;;4.77;;
8859;SDS011;4466;50.948;4.832;2024-03-17T04:47:09;6.97;;;5.30;;
8859;SDS011;4466;50.948;4.832;2024-03-17T04:49:39;6.20;;;4.67;;
8859;SDS011;4466;50.948;4.832;2024-03-17T04:52:06;5.93;;;4.40;;
8859;SDS011;4466;50.948;4.832;2024-03-17T04:54:32;6.90;;;4.77;;
8859;SDS011;4466;50.948;4.832;2024-03-17T04:56:59;9.20;;;5.37;;
8859;SDS011;4466;50.948;4.832;2024-03-17T04:59:24;6.40;;;4.60;;
8859;SDS011;4466;50.948;4.832;2024-03-17T05:01:50;5.90;;;4.67;;
8859;SDS011;4466;50.948;4.832;2024-03-17T05:04:16;8.97;;;5.07;;
8859;SDS011;4466;50.948;4.832;2024-03-17T05:06:42;6.83;;;4.83;;
8859;SDS011;4466;50.948;4.832;2024-03-17T05:09:11;6.47;;;5.07;;
8859;SDS011;4466;50.948;4.832;2024-03-17T05:11:43;6.20;;;4.40;;
8859;SDS011;4466;50.948;4.832;2024-03-17T05:14:09;7.70;;;5.10;;
8859;SDS011;4466;50.948;4.832;2024-03-17T05:16:35;7.40;;;5.10;;
8859;SDS011;4466;50.948;4.832;2024-03-17T05:19:01;5.87;;;4.73;;
8859;SDS011;4466;50.948;4.832;2024-03-17T05:21:28;6.97;;;4.97;;
8859;SDS011;4466;50.948;4.832;2024-03-17T05:23:55;6.17;;;5.13;;
8859;SDS011;4466;50.948;4.832;2024-03-17T05:26:25;8.17;;;5.60;;
8859;SDS011;4466;50.948;4.832;2024-03-17T05:28:50;7.10;;;5.00;;
8859;SDS011;4466;50.948;4.832;2024-03-17T05:31:16;9.03;;;5.30;;
8859;SDS011;4466;50.948;4.832;2024-03-17T05:33:43;6.03;;;4.87;;
8859;SDS011;4466;50.948;4.832;2024-03-17T05:36:09;7.80;;;5.07;;
8859;SDS011;4466;50.948;4.832;2024-03-17T05:38:35;7.63;;;5.07;;
8859;SDS011;4466;50.948;4.832;2024-03-17T05:41:02;5.63;;;4.50;;
8859;SDS011;4466;50.948;4.832;2024-03-17T05:43:29;6.87;;;5.17;;
8859;SDS011;4466;50.948;4.832;2024-03-17T05:46:05;8.07;;;5.00;;
8859;SDS011;4466;50.948;4.832;2024-03-17T05:48:40;6.50;;;4.93;;
8859;SDS011;4466;50.948;4.832;2024-03-17T05:51:06;7.67;;;5.17;;
8859;SDS011;4466;50.948;4.832;2024-03-17T05:53:36;7.40;;;5.00;;
8859;SDS011;4466;50.948;4.832;2024-03-17T05:56:03;9.60;;;5.27;;
8859;SDS011;4466;50.948;4.832;2024-03-17T05:58:32;7.50;;;5.63;;
8859;SDS011;4466;50.948;4.832;2024-03-17T06:01:01;7.73;;;4.90;;
8859;SDS011;4466;50.948;4.832;2024-03-17T06:03:27;8.53;;;5.40;;
8859;SDS011;4466;50.948;4.832;2024-03-17T06:05:53;6.63;;;5.43;;
8859;SDS011;4466;50.948;4.832;2024-03-17T06:08:18;6.70;;;4.63;;
8859;SDS011;4466;50.948;4.832;2024-03-17T06:10:45;6.10;;;5.13;;
8859;SDS011;4466;50.948;4.832;2024-03-17T06:13:12;7.90;;;5.00;;
8859;SDS011;4466;50.948;4.832;2024-03-17T06:15:40;6.87;;;5.17;;
8859;SDS011;4466;50.948;4.832;2024-03-17T06:18:06;8.50;;;5.40;;
8859;SDS011;4466;50.948;4.832;2024-03-17T06:20:39;7.57;;;5.10;;
8859;SDS011;4466;50.948;4.832;2024-03-17T06:23:07;8.33;;;5.10;;
8859;SDS011;4466;50.948;4.832;2024-03-17T06:25:36;6.73;;;5.10;;
8859;SDS011;4466;50.948;4.832;2024-03-17T06:28:13;7.80;;;5.43;;
8859;SDS011;4466;50.948;4.832;2024-03-17T06:30:40;8.30;;;5.30;;
8859;SDS011;4466;50.948;4.832;2024-03-17T06:33:11;7.43;;;5.20;;
8859;SDS011;4466;50.948;4.832;2024-03-17T06:35:37;8.87;;;5.00;;
8859;SDS011;4466;50.948;4.832;2024-03-17T06:38:03;10.27;;;4.77;;
8859;SDS011;4466;50.948;4.832;2024-03-17T06:40:29;8.43;;;4.93;;
8859;SDS011;4466;50.948;4.832;2024-03-17T06:42:55;7.13;;;4.93;;
8859;SDS011;4466;50.948;4.832;2024-03-17T06:45:22;8.33;;;5.60;;
8859;SDS011;4466;50.948;4.832;2024-03-17T06:47:48;8.30;;;5.63;;
8859;SDS011;4466;50.948;4.832;2024-03-17T06:50:13;11.00;;;5.63;;
8859;SDS011;4466;50.948;4.832;2024-03-17T06:52:39;6.50;;;5.00;;
8859;SDS011;4466;50.948;4.832;2024-03-17T06:55:05;7.30;;;4.90;;
8859;SDS011;4466;50.948;4.832;2024-03-17T06:57:34;7.23;;;4.93;;
8859;SDS011;4466;50.948;4.832;2024-03-17T07:00:00;7.40;;;4.77;;
8859;SDS011;4466;50.948;4.832;2024-03-17T07:02:30;8.47;;;4.83;;
8859;SDS011;4466;50.948;4.832;2024-03-17T07:04:57;7.07;;;4.67;;
8859;SDS011;4466;50.948;4.832;2024-03-17T07:07:23;7.57;;;4.97;;
8859;SDS011;4466;50.948;4.832;2024-03-17T07:09:51;6.40;;;4.90;;
8859;SDS011;4466;50.948;4.832;2024-03-17T07:12:16;6.13;;;4.70;;
8859;SDS011;4466;50.948;4.832;2024-03-17T07:14:42;6.93;;;5.03;;
8859;SDS011;4466;50.948;4.832;2024-03-17T07:17:08;7.67;;;4.53;;
8859;SDS011;4466;50.948;4.832;2024-03-17T07:19:33;6.73;;;4.80;;
8859;SDS011;4466;50.948;4.832;2024-03-17T07:22:00;6.73;;;4.60;;
8859;SDS011;4466;50.948;4.832;2024-03-17T07:24:26;7.80;;;4.70;;
8859;SDS011;4466;50.948;4.832;2024-03-17T07:26:52;7.57;;;4.60;;
8859;SDS011;4466;50.948;4.832;2024-03-17T07:29:18;5.13;;;4.30;;
8859;SDS011;4466;50.948;4.832;2024-03-17T07:31:44;8.47;;;4.70;;
8859;SDS011;4466;50.948;4.832;2024-03-17T07:34:10;5.77;;;4.67;;
8859;SDS011;4466;50.948;4.832;2024-03-17T07:36:35;6.20;;;4.63;;
8859;SDS011;4466;50.948;4.832;2024-03-17T07:39:01;11.37;;;5.10;;
8859;SDS011;4466;50.948;4.832;2024-03-17T07:41:27;5.33;;;4.80;;
8859;SDS011;4466;50.948;4.832;2024-03-17T07:43:53;7.93;;;4.67;;
8859;SDS011;4466;50.948;4.832;2024-03-17T07:46:18;8.00;;;4.37;;
8859;SDS011;4466;50.948;4.832;2024-03-17T07:48:44;7.10;;;4.47;;
8859;SDS011;4466;50.948;4.832;2024-03-17T07:51:14;7.53;;;4.50;;
8859;SDS011;4466;50.948;4.832;2024-03-17T07:53:42;5.57;;;4.37;;
8859;SDS011;4466;50.948;4.832;2024-03-17T07:56:10;6.83;;;3.97;;
8859;SDS011;4466;50.948;4.832;2024-03-17T07:58:37;6.67;;;4.17;;
8859;SDS011;4466;50.948;4.832;2024-03-17T08:01:05;10.70;;;4.50;;
8859;SDS011;4466;50.948;4.832;2024-03-17T08:03:33;5.50;;;4.07;;
8859;SDS011;4466;50.948;4.832;2024-03-17T08:06:00;7.37;;;4.30;;
8859;SDS011;4466;50.948;4.832;2024-03-17T08:08:27;6.77;;;4.30;;
8859;SDS011;4466;50.948;4.832;2024-03-17T08:10:53;4.40;;;3.67;;
8859;SDS011;4466;50.948;4.832;2024-03-17T08:13:20;7.17;;;4.20;;
8859;SDS011;4466;50.948;4.832;2024-03-17T08:15:46;4.87;;;4.37;;
8859;SDS011;4466;50.948;4.832;2024-03-17T08:18:20;5.07;;;4.10;;
8859;SDS011;4466;50.948;4.832;2024-03-17T08:20:45;5.43;;;4.33;;
8859;SDS011;4466;50.948;4.832;2024-03-17T08:23:14;7.33;;;4.30;;
8859;SDS011;4466;50.948;4.832;2024-03-17T08:25:40;5.80;;;4.03;;
8859;SDS011;4466;50.948;4.832;2024-03-17T08:28:06;7.80;;;4.50;;
8859;SDS011;4466;50.948;4.832;2024-03-17T08:30:34;6.87;;;4.80;;
8859;SDS011;4466;50.948;4.832;2024-03-17T08:33:00;5.90;;;4.17;;
8859;SDS011;4466;50.948;4.832;2024-03-17T08:35:26;7.50;;;4.40;;
8859;SDS011;4466;50.948;4.832;2024-03-17T08:37:52;4.80;;;3.90;;
8859;SDS011;4466;50.948;4.832;2024-03-17T08:40:21;7.50;;;4.30;;
8859;SDS011;4466;50.948;4.832;2024-03-17T08:42:47;7.80;;;4.30;;
8859;SDS011;4466;50.948;4.832;2024-03-17T08:45:13;5.57;;;4.20;;
8859;SDS011;4466;50.948;4.832;2024-03-17T08:47:39;5.25;;;4.03;;
8859;SDS011;4466;50.948;4.832;2024-03-17T08:50:05;7.85;;;4.20;;
8859;SDS011;4466;50.948;4.832;2024-03-17T08:52:33;6.07;;;3.80;;
8859;SDS011;4466;50.948;4.832;2024-03-17T08:54:59;4.65;;;3.83;;
8859;SDS011;4466;50.948;4.832;2024-03-17T08:57:28;6.93;;;3.95;;
8859;SDS011;4466;50.948;4.832;2024-03-17T08:59:59;5.68;;;3.88;;
8859;SDS011;4466;50.948;4.832;2024-03-17T09:02:24;6.47;;;3.67;;
8859;SDS011;4466;50.948;4.832;2024-03-17T09:04:50;9.20;;;4.10;;
8859;SDS011;4466;50.948;4.832;2024-03-17T09:07:15;6.28;;;3.97;;
8859;SDS011;4466;50.948;4.832;2024-03-17T09:09:41;8.43;;;4.10;;
8859;SDS011;4466;50.948;4.832;2024-03-17T09:12:07;5.53;;;3.47;;
8859;SDS011;4466;50.948;4.832;2024-03-17T09:14:34;4.47;;;3.13;;
8859;SDS011;4466;50.948;4.832;2024-03-17T09:16:59;5.78;;;3.58;;
8859;SDS011;4466;50.948;4.832;2024-03-17T09:19:25;6.28;;;3.22;;
8859;SDS011;4466;50.948;4.832;2024-03-17T09:21:51;5.82;;;3.08;;
8859;SDS011;4466;50.948;4.832;2024-03-17T09:24:16;5.05;;;3.17;;
8859;SDS011;4466;50.948;4.832;2024-03-17T09:26:42;5.18;;;3.60;;
8859;SDS011;4466;50.948;4.832;2024-03-17T09:29:07;5.18;;;3.55;;
8859;SDS011;4466;50.948;4.832;2024-03-17T09:31:33;5.75;;;3.50;;
8859;SDS011;4466;50.948;4.832;2024-03-17T09:34:01;6.20;;;3.20;;
8859;SDS011;4466;50.948;4.832;2024-03-17T09:36:27;4.95;;;3.10;;
8859;SDS011;4466;50.948;4.832;2024-03-17T09:38:52;4.97;;;2.60;;
8859;SDS011;4466;50.948;4.832;2024-03-17T09:41:22;5.40;;;2.85;;
8859;SDS011;4466;50.948;4.832;2024-03-17T09:43:54;3.80;;;2.72;;
8859;SDS011;4466;50.948;4.832;2024-03-17T09:46:20;4.40;;;2.67;;
8859;SDS011;4466;50.948;4.832;2024-03-17T09:48:48;4.72;;;2.70;;
8859;SDS011;4466;50.948;4.832;2024-03-17T09:51:18;5.75;;;2.65;;
8859;SDS011;4466;50.948;4.832;2024-03-17T09:53:45;3.53;;;2.53;;
8859;SDS011;4466;50.948;4.832;2024-03-17T09:56:21;7.03;;;2.50;;
8859;SDS011;4466;50.948;4.832;2024-03-17T09:58:47;4.88;;;3.15;;
8859;SDS011;4466;50.948;4.832;2024-03-17T10:01:14;5.43;;;2.88;;
8859;SDS011;4466;50.948;4.832;2024-03-17T10:03:45;4.88;;;2.78;;
8859;SDS011;4466;50.948;4.832;2024-03-17T10:06:15;4.72;;;2.83;;
8859;SDS011;4466;50.948;4.832;2024-03-17T10:08:42;5.28;;;2.70;;
8859;SDS011;4466;50.948;4.832;2024-03-17T10:11:22;3.70;;;2.55;;
8859;SDS011;4466;50.948;4.832;2024-03-17T10:14:04;3.75;;;2.30;;
8859;SDS011;4466;50.948;4.832;2024-03-17T10:16:33;3.33;;;2.28;;
8859;SDS011;4466;50.948;4.832;2024-03-17T10:19:10;3.90;;;2.20;;
8859;SDS011;4466;50.948;4.832;2024-03-17T10:24:20;4.77;;;2.30;;
8859;SDS011;4466;50.948;4.832;2024-03-17T10:26:48;7.20;;;2.30;;
8859;SDS011;4466;50.948;4.832;2024-03-17T10:29:36;5.15;;;2.10;;
8859;SDS011;4466;50.948;4.832;2024-03-17T10:32:02;6.30;;;2.17;;
8859;SDS011;4466;50.948;4.832;2024-03-17T10:34:29;5.65;;;2.13;;
8859;SDS011;4466;50.948;4.832;2024-03-17T10:37:06;4.22;;;2.00;;
8859;SDS011;4466;50.948;4.832;2024-03-17T10:39:37;4.10;;;2.00;;
8859;SDS011;4466;50.948;4.832;2024-03-17T10:42:04;4.35;;;2.10;;
8859;SDS011;4466;50.948;4.832;2024-03-17T10:44:31;8.15;;;2.50;;
8859;SDS011;4466;50.948;4.832;2024-03-17T10:46:59;7.40;;;1.85;;
8859;SDS011;4466;50.948;4.832;2024-03-17T10:49:30;3.42;;;2.00;;
8859;SDS011;4466;50.948;4.832;2024-03-17T10:51:57;4.57;;;2.22;;
8859;SDS011;4466;50.948;4.832;2024-03-17T10:54:27;9.45;;;2.50;;
8859;SDS011;4466;50.948;4.832;2024-03-17T10:57:16;5.88;;;2.30;;
8859;SDS011;4466;50.948;4.832;2024-03-17T10:59:53;5.07;;;2.50;;
8859;SDS011;4466;50.948;4.832;2024-03-17T11:04:49;3.45;;;2.40;;
8859;SDS011;4466;50.948;4.832;2024-03-17T11:07:18;6.68;;;2.17;;
8859;SDS011;4466;50.948;4.832;2024-03-17T11:09:45;6.45;;;3.20;;
8859;SDS011;4466;50.948;4.832;2024-03-17T11:17:47;5.07;;;2.92;;
8859;SDS011;4466;50.948;4.832;2024-03-17T11:20:23;6.32;;;2.83;;
8859;SDS011;4466;50.948;4.832;2024-03-17T11:22:50;6.55;;;3.03;;
8859;SDS011;4466;50.948;4.832;2024-03-17T11:27:56;6.38;;;2.83;;
8859;SDS011;4466;50.948;4.832;2024-03-17T11:47:00;3.97;;;2.40;;
8859;SDS011;4466;50.948;4.832;2024-03-17T11:52:04;4.97;;;2.30;;
8859;SDS011;4466;50.948;4.832;2024-03-17T11:54:34;3.45;;;2.22;;
8859;SDS011;4466;50.948;4.832;2024-03-17T11:57:02;5.22;;;2.38;;
8859;SDS011;4466;50.948;4.832;2024-03-17T11:59:33;4.13;;;2.13;;
8859;SDS011;4466;50.948;4.832;2024-03-17T12:01:59;4.75;;;2.53;;
8859;SDS011;4466;50.948;4.832;2024-03-17T12:04:26;3.25;;;2.17;;
8859;SDS011;4466;50.948;4.832;2024-03-17T12:06:52;3.53;;;2.13;;
8859;SDS011;4466;50.948;4.832;2024-03-17T12:12:04;4.35;;;2.10;;
8859;SDS011;4466;50.948;4.832;2024-03-17T12:14:33;4.00;;;2.20;;
8859;SDS011;4466;50.948;4.832;2024-03-17T12:17:00;4.80;;;2.50;;
8859;SDS011;4466;50.948;4.832;2024-03-17T12:19:27;2.33;;;2.00;;
8859;SDS011;4466;50.948;4.832;2024-03-17T12:22:01;4.10;;;2.03;;
8859;SDS011;4466;50.948;4.832;2024-03-17T12:24:30;3.78;;;2.00;;
8859;SDS011;4466;50.948;4.832;2024-03-17T12:26:57;4.63;;;2.05;;
8859;SDS011;4466;50.948;4.832;2024-03-17T12:29:32;4.05;;;1.90;;
8859;SDS011;4466;50.948;4.832;2024-03-17T12:32:04;3.03;;;1.70;;
8859;SDS011;4466;50.948;4.832;2024-03-17T12:34:31;4.43;;;1.85;;
8859;SDS011;4466;50.948;4.832;2024-03-17T12:36:59;4.60;;;2.13;;
8859;SDS011;4466;50.948;4.832;2024-03-17T12:39:28;4.88;;;2.08;;
8859;SDS011;4466;50.948;4.832;2024-03-17T12:42:05;3.58;;;2.10;;
8859;SDS011;4466;50.948;4.832;2024-03-17T12:44:36;3.95;;;1.85;;
8859;SDS011;4466;50.948;4.832;2024-03-17T12:47:09;2.67;;;1.85;;
8859;SDS011;4466;50.948;4.832;2024-03-17T12:49:44;4.18;;;1.83;;
8859;SDS011;4466;50.948;4.832;2024-03-17T12:52:32;4.07;;;1.70;;
8859;SDS011;4466;50.948;4.832;2024-03-17T13:00:46;3.95;;;1.88;;
8859;SDS011;4466;50.948;4.832;2024-03-17T13:03:23;3.88;;;1.88;;
8859;SDS011;4466;50.948;4.832;2024-03-17T13:05:50;3.83;;;1.67;;
8859;SDS011;4466;50.948;4.832;2024-03-17T13:08:16;4.93;;;1.85;;
8859;SDS011;4466;50.948;4.832;2024-03-17T13:10:42;5.40;;;2.00;;
8859;SDS011;4466;50.948;4.832;2024-03-17T13:13:08;2.83;;;1.60;;
8859;SDS011;4466;50.948;4.832;2024-03-17T13:15:35;2.30;;;1.60;;
8859;SDS011;4466;50.948;4.832;2024-03-17T13:18:01;3.83;;;1.70;;
8859;SDS011;4466;50.948;4.832;2024-03-17T13:20:29;3.53;;;1.92;;
8859;SDS011;4466;50.948;4.832;2024-03-17T13:22:55;3.53;;;2.03;;
8859;SDS011;4466;50.948;4.832;2024-03-17T13:25:22;2.83;;;1.70;;
8859;SDS011;4466;50.948;4.832;2024-03-17T13:27:55;2.22;;;1.50;;
8859;SDS011;4466;50.948;4.832;2024-03-17T13:30:21;3.50;;;2.00;;
8859;SDS011;4466;50.948;4.832;2024-03-17T13:32:48;3.33;;;1.50;;
8859;SDS011;4466;50.948;4.832;2024-03-17T13:35:25;3.65;;;1.65;;
8859;SDS011;4466;50.948;4.832;2024-03-17T13:37:52;4.75;;;1.40;;
8859;SDS011;4466;50.948;4.832;2024-03-17T13:40:21;3.45;;;1.50;;
8859;SDS011;4466;50.948;4.832;2024-03-17T13:42:50;3.05;;;1.60;;
8859;SDS011;4466;50.948;4.832;2024-03-17T13:45:17;6.00;;;1.95;;
8859;SDS011;4466;50.948;4.832;2024-03-17T13:47:46;4.45;;;1.60;;
8859;SDS011;4466;50.948;4.832;2024-03-17T13:50:15;3.75;;;1.83;;
8859;SDS011;4466;50.948;4.832;2024-03-17T13:52:41;4.28;;;1.63;;
8859;SDS011;4466;50.948;4.832;2024-03-17T13:55:12;3.08;;;1.50;;
8859;SDS011;4466;50.948;4.832;2024-03-17T13:57:46;3.10;;;1.52;;
8859;SDS011;4466;50.948;4.832;2024-03-17T14:00:25;3.60;;;1.77;;
8859;SDS011;4466;50.948;4.832;2024-03-17T14:02:53;3.38;;;1.50;;
8859;SDS011;4466;50.948;4.832;2024-03-17T14:05:21;4.80;;;1.48;;
8859;SDS011;4466;50.948;4.832;2024-03-17T14:07:48;3.47;;;1.58;;
8859;SDS011;4466;50.948;4.832;2024-03-17T14:10:15;5.35;;;2.83;;
8859;SDS011;4466;50.948;4.832;2024-03-17T14:12:41;4.45;;;2.08;;
8859;SDS011;4466;50.948;4.832;2024-03-17T14:15:08;3.92;;;2.20;;
8859;SDS011;4466;50.948;4.832;2024-03-17T14:17:36;4.88;;;1.98;;
8859;SDS011;4466;50.948;4.832;2024-03-17T14:20:09;12.70;;;2.13;;
8859;SDS011;4466;50.948;4.832;2024-03-17T14:22:38;4.00;;;1.60;;
8859;SDS011;4466;50.948;4.832;2024-03-17T14:25:17;3.92;;;1.35;;
8859;SDS011;4466;50.948;4.832;2024-03-17T14:27:49;2.97;;;1.38;;
8859;SDS011;4466;50.948;4.832;2024-03-17T14:30:16;3.22;;;1.35;;
8859;SDS011;4466;50.948;4.832;2024-03-17T14:32:43;2.38;;;1.45;;
8859;SDS011;4466;50.948;4.832;2024-03-17T14:35:14;3.78;;;1.48;;
8859;SDS011;4466;50.948;4.832;2024-03-17T14:37:43;2.83;;;1.30;;
8859;SDS011;4466;50.948;4.832;2024-03-17T14:40:13;2.28;;;1.42;;
8859;SDS011;4466;50.948;4.832;2024-03-17T14:42:53;2.55;;;1.20;;
8859;SDS011;4466;50.948;4.832;2024-03-17T14:45:20;2.63;;;1.50;;
8859;SDS011;4466;50.948;4.832;2024-03-17T14:47:48;3.00;;;1.40;;
8859;SDS011;4466;50.948;4.832;2024-03-17T14:50:14;3.15;;;1.48;;
8859;SDS011;4466;50.948;4.832;2024-03-17T14:52:41;2.92;;;1.15;;
8859;SDS011;4466;50.948;4.832;2024-03-17T14:57:43;5.20;;;1.45;;
8859;SDS011;4466;50.948;4.832;2024-03-17T15:00:10;2.78;;;1.30;;
8859;SDS011;4466;50.948;4.832;2024-03-17T15:02:44;2.50;;;1.08;;
8859;SDS011;4466;50.948;4.832;2024-03-17T15:05:12;1.30;;;0.98;;
8859;SDS011;4466;50.948;4.832;2024-03-17T15:07:39;3.15;;;1.10;;
8859;SDS011;4466;50.948;4.832;2024-03-17T15:10:05;3.80;;;1.25;;
8859;SDS011;4466;50.948;4.832;2024-03-17T15:12:32;5.65;;;1.50;;
8859;SDS011;4466;50.948;4.832;2024-03-17T15:14:58;3.33;;;1.38;;
8859;SDS011;4466;50.948;4.832;2024-03-17T15:17:23;5.72;;;1.60;;
8859;SDS011;4466;50.948;4.832;2024-03-17T15:19:50;3.63;;;1.35;;
8859;SDS011;4466;50.948;4.832;2024-03-17T15:22:15;10.68;;;1.88;;
8859;SDS011;4466;50.948;4.832;2024-03-17T15:24:41;2.70;;;1.13;;
8859;SDS011;4466;50.948;4.832;2024-03-17T15:27:07;2.90;;;1.40;;
8859;SDS011;4466;50.948;4.832;2024-03-17T15:29:35;2.67;;;1.40;;
8859;SDS011;4466;50.948;4.832;2024-03-17T15:32:00;3.38;;;1.45;;
8859;SDS011;4466;50.948;4.832;2024-03-17T15:34:26;3.50;;;1.30;;
8859;SDS011;4466;50.948;4.832;2024-03-17T15:36:56;3.33;;;1.20;;
8859;SDS011;4466;50.948;4.832;2024-03-17T15:39:22;2.60;;;1.30;;
8859;SDS011;4466;50.948;4.832;2024-03-17T15:41:48;3.05;;;1.38;;
8859;SDS011;4466;50.948;4.832;2024-03-17T15:44:14;1.90;;;1.27;;
8859;SDS011;4466;50.948;4.832;2024-03-17T15:46:40;1.73;;;1.00;;
8859;SDS011;4466;50.948;4.832;2024-03-17T15:49:06;4.90;;;1.48;;
8859;SDS011;4466;50.948;4.832;2024-03-17T15:51:32;4.97;;;1.45;;
8859;SDS011;4466;50.948;4.832;2024-03-17T15:53:58;2.25;;;1.00;;
8859;SDS011;4466;50.948;4.832;2024-03-17T15:56:24;8.07;;;1.65;;
8859;SDS011;4466;50.948;4.832;2024-03-17T15:58:49;2.78;;;1.23;;